Caribbean-star — A8KJ7 — position and weather

sailwx.info

Track history (hours):
 
Tides and Currents Weather Stations Pressure Air Temp Water Temp Dewpoint Dewpoint Depression Visibility Wind Speed Wind Dir Waves Ship Positions

Caribbean-star

Last reported at 2018-Jun-22 23:05 UTC. Time now 2018-Jun-23 06:24 UTC.
Position N 48°02' W 006°29'.

Length 185 m; draft 8 m.

Type: Cargo ship. MMSI: 636013068.

Date/timePositionNaut miles runAvg speedWind from/ knotsBaromVisibWave heightAir tempDewpointWater temp
2018-Jun-22 23:05N 48°02' W 006°29'1915.0
2018-Jun-22 21:50N 48°18' W 006°16'515.0
2018-Jun-22 21:30N 48°23' W 006°12'915.3
2018-Jun-22 20:56N 48°30' W 006°06'1615.3
2018-Jun-22 19:51N 48°45' W 005°55'614.8
2018-Jun-22 19:26N 48°51' W 005°50'615.2
2018-Jun-22 19:00N 48°55' W 005°43'816.8
2018-Jun-22 18:31N 48°59' W 005°32'1017.1
2018-Jun-22 17:56N 49°04' W 005°19'6916.2
2018-Jun-22 13:42N 49°39' W 003°48'315.2
2018-Jun-22 13:30N 49°41' W 003°44'815.1
2018-Jun-22 13:00N 49°44' W 003°34'815.1
2018-Jun-22 12:27N 49°49' W 003°23'715.4
2018-Jun-22 12:00N 49°52' W 003°14'815.9
2018-Jun-22 11:30N 49°57' W 003°04'816.1
2018-Jun-22 11:00N 50°00' W 002°53'816.8
2018-Jun-22 10:30N 50°02' W 002°40'1117.5
2018-Jun-22 09:53N 50°05' W 002°23'918.2
2018-Jun-22 09:24N 50°07' W 002°10'4618.1
2018-Jun-22 06:51N 50°20' W 001°01'616.6
2018-Jun-22 06:29N 50°21' W 000°52'815.9
2018-Jun-22 06:00N 50°24' W 000°40'815.4
2018-Jun-22 05:30N 50°26' W 000°29'715.0
2018-Jun-22 05:00N 50°28' W 000°17'814.8
2018-Jun-22 04:27N 50°30' W 000°05'614.6
2018-Jun-22 04:01N 50°32' E 000°05'814.4
2018-Jun-22 03:27N 50°34' E 000°17'714.5
2018-Jun-22 03:01N 50°36' E 000°27'714.9
2018-Jun-22 02:30N 50°39' E 000°37'815.7
2018-Jun-22 02:00N 50°44' E 000°47'816.3
2018-Jun-22 01:30N 50°48' E 000°58'816.8
2018-Jun-22 01:00N 50°53' E 001°09'817.0
2018-Jun-22 00:30N 50°60' E 001°18'815.5
2018-Jun-22 00:00N 51°05' E 001°27'713.8
2018-Jun-21 23:30N 51°09' E 001°36'815.9
2018-Jun-21 23:00N 51°14' E 001°45'815.6
2018-Jun-21 22:30N 51°20' E 001°53'714.0
2018-Jun-21 22:00N 51°24' E 002°02'815.5
2018-Jun-21 21:30N 51°21' E 002°13'714.7
2018-Jun-21 21:00N 51°22' E 002°25'814.7
2018-Jun-21 20:29N 51°23' E 002°37'612.3
2018-Jun-21 20:00N 51°22' E 002°47'612.6
2018-Jun-21 19:30N 51°23' E 002°56'713.0
2018-Jun-21 19:00N 51°24' E 003°07'712.8
2018-Jun-21 18:29N 51°25' E 003°17'612.6
2018-Jun-21 18:00N 51°25' E 003°27'611.4
2018-Jun-21 17:30N 51°26' E 003°36'4 8.2
2018-Jun-21 17:01N 51°25' E 003°42'5 9.9
2018-Jun-21 16:31N 51°21' E 003°48'510.2
2018-Jun-21 16:00N 51°22' E 003°56'5 9.9
2018-Jun-21 15:30N 51°26' E 004°00'510.0
2018-Jun-21 15:00N 51°22' E 004°05'5 9.6
2018-Jun-21 14:31N 51°23' E 004°13'5 9.9
2018-Jun-21 14:01N 51°18' E 004°16'2 3.0
2018-Jun-21 13:24N 51°17' E 004°15'0 0.0
2018-Jun-21 13:00N 51°17' E 004°15'1 1.5
2018-Jun-21 12:30N 51°16' E 004°15'0 0.3
2018-Jun-21 11:57N 51°16' E 004°15'0 0.0
2018-Jun-21 11:30N 51°16' E 004°15'0 0.0
2018-Jun-21 11:00N 51°16' E 004°15'0 0.0
2018-Jun-21 10:30N 51°16' E 004°15'0 0.0
2018-Jun-21 10:00N 51°16' E 004°15'0 0.0
2018-Jun-21 09:30N 51°16' E 004°15'0 0.0
2018-Jun-21 09:00N 51°16' E 004°15'0 0.0
2018-Jun-21 08:30N 51°16' E 004°15'0 0.0
2018-Jun-21 07:59N 51°16' E 004°15'0 0.0
2018-Jun-21 07:29N 51°16' E 004°15'0 0.0
2018-Jun-21 06:59N 51°16' E 004°15'0 0.0
2018-Jun-21 06:29N 51°16' E 004°15'0 0.0
2018-Jun-21 05:59N 51°16' E 004°15'0 0.0
2018-Jun-21 05:29N 51°16' E 004°15'0 0.0
2018-Jun-21 04:59N 51°16' E 004°15'0 0.0
2018-Jun-21 04:29N 51°16' E 004°15'0 0.0
2018-Jun-21 03:59N 51°16' E 004°15'0 0.0
2018-Jun-21 03:29N 51°16' E 004°15'0 0.0
2018-Jun-21 02:59N 51°16' E 004°15'0 0.0
2018-Jun-21 02:29N 51°16' E 004°15'0 0.0
2018-Jun-21 01:59N 51°16' E 004°15'0 0.0
2018-Jun-21 01:29N 51°16' E 004°15'0 0.0
2018-Jun-21 00:59N 51°16' E 004°15'0 0.0
2018-Jun-21 00:29N 51°16' E 004°15'0 0.0
2018-Jun-21 00:00N 51°16' E 004°15'0 0.0
2018-Jun-20 23:30N 51°16' E 004°15'0 0.0
2018-Jun-20 23:00N 51°16' E 004°15'0 0.0
2018-Jun-20 22:30N 51°16' E 004°15'0 0.0
2018-Jun-20 22:00N 51°16' E 004°15'0 0.0
2018-Jun-20 21:30N 51°16' E 004°15'0 0.0
2018-Jun-20 21:00N 51°16' E 004°15'0 0.0
2018-Jun-20 20:30N 51°16' E 004°15'0 0.0
2018-Jun-20 20:00N 51°16' E 004°15'0 0.0
2018-Jun-20 19:30N 51°16' E 004°15'0 0.0
2018-Jun-20 19:00N 51°16' E 004°15'0 0.0
2018-Jun-20 18:24N 51°16' E 004°15'0 0.0
2018-Jun-20 18:00N 51°16' E 004°15'0 0.0
2018-Jun-20 17:30N 51°16' E 004°15'0 0.0
2018-Jun-20 17:00N 51°16' E 004°15'0 0.0
2018-Jun-20 16:30N 51°16' E 004°15'0 0.0
2018-Jun-20 16:00N 51°16' E 004°15'0 0.0
2018-Jun-20 15:30N 51°16' E 004°15'0 0.0
2018-Jun-20 15:00N 51°16' E 004°15'0 0.0
2018-Jun-20 14:30N 51°16' E 004°15'0 0.0
2018-Jun-20 14:00N 51°16' E 004°15'0 0.0
2018-Jun-20 13:24N 51°16' E 004°15'0 0.0
2018-Jun-20 13:00N 51°16' E 004°15'0 0.0
2018-Jun-20 12:30N 51°16' E 004°15'0 0.0
2018-Jun-20 12:00N 51°16' E 004°15'0 0.0
2018-Jun-20 11:30N 51°16' E 004°15'0 0.0
2018-Jun-20 11:00N 51°16' E 004°15'0 0.0
2018-Jun-20 10:26N 51°16' E 004°15'0 0.0
2018-Jun-20 09:59N 51°16' E 004°15'0 0.0
2018-Jun-20 09:29N 51°16' E 004°15'0 0.0
2018-Jun-20 08:56N 51°16' E 004°15'0 0.0
2018-Jun-20 08:29N 51°16' E 004°15'0 0.0
2018-Jun-20 07:59N 51°16' E 004°15'0 0.0
2018-Jun-20 07:29N 51°16' E 004°15'0 0.0
2018-Jun-20 06:59N 51°16' E 004°15'0 0.0
2018-Jun-20 06:29N 51°16' E 004°15'0 0.0
2018-Jun-20 05:59N 51°16' E 004°15'0 0.0
2018-Jun-20 05:29N 51°16' E 004°15'0 0.0
2018-Jun-20 04:59N 51°16' E 004°15'0 0.0
2018-Jun-20 04:29N 51°16' E 004°15'0 0.0
2018-Jun-20 03:59N 51°16' E 004°15'0 0.0
2018-Jun-20 03:29N 51°16' E 004°15'0 0.0
2018-Jun-20 02:59N 51°16' E 004°15'0 0.0
2018-Jun-20 02:29N 51°16' E 004°15'0 0.0
2018-Jun-20 01:59N 51°16' E 004°15'0 0.0
2018-Jun-20 01:29N 51°16' E 004°15'0 0.0
2018-Jun-20 00:59N 51°16' E 004°15'0 0.0
2018-Jun-20 00:29N 51°16' E 004°15'0 0.0
2018-Jun-19 23:59N 51°16' E 004°15'0 0.0
2018-Jun-19 23:29N 51°16' E 004°15'0 0.0
2018-Jun-19 22:59N 51°16' E 004°15'0 0.0
2018-Jun-19 22:29N 51°16' E 004°15'0 0.0
2018-Jun-19 21:59N 51°16' E 004°15'0 0.0
2018-Jun-19 21:29N 51°16' E 004°15'0 0.0
2018-Jun-19 20:56N 51°16' E 004°15'0 0.0
2018-Jun-19 20:29N 51°16' E 004°15'0 0.0
2018-Jun-19 19:59N 51°16' E 004°15'0 0.0
2018-Jun-19 19:26N 51°16' E 004°15'0 0.0
2018-Jun-19 18:59N 51°16' E 004°15'0 0.0
2018-Jun-19 18:29N 51°16' E 004°15'0 0.0
2018-Jun-19 17:59N 51°16' E 004°15'0 0.0
2018-Jun-19 17:29N 51°16' E 004°15'0 0.0
2018-Jun-19 16:59N 51°16' E 004°15'0 0.0
2018-Jun-19 16:29N 51°16' E 004°15'0 0.0
2018-Jun-19 15:59N 51°16' E 004°15'0 0.0
2018-Jun-19 15:29N 51°16' E 004°15'0 0.0
2018-Jun-19 14:59N 51°16' E 004°15'0 0.0
2018-Jun-19 14:29N 51°16' E 004°15'0 0.0
2018-Jun-19 13:59N 51°16' E 004°15'0 0.0
2018-Jun-19 13:29N 51°16' E 004°15'0 0.0
2018-Jun-19 12:59N 51°16' E 004°15'0 0.0
2018-Jun-19 12:29N 51°16' E 004°15'0 0.0
2018-Jun-19 11:59N 51°16' E 004°15'0 0.0
2018-Jun-19 11:29N 51°16' E 004°15'0 0.0
2018-Jun-19 10:59N 51°16' E 004°15'0 0.0
2018-Jun-19 10:29N 51°16' E 004°15'0 0.0
2018-Jun-19 09:59N 51°16' E 004°15'0 0.0
2018-Jun-19 09:29N 51°16' E 004°15'0 0.0
2018-Jun-19 08:59N 51°16' E 004°15'0 0.0
2018-Jun-19 08:29N 51°16' E 004°15'0 0.0
2018-Jun-19 07:59N 51°16' E 004°15'0 0.0
2018-Jun-19 07:29N 51°16' E 004°15'0 0.0
2018-Jun-19 06:59N 51°16' E 004°15'0 0.0
2018-Jun-19 06:29N 51°16' E 004°15'0 0.0
2018-Jun-19 05:59N 51°16' E 004°15'0 0.0
2018-Jun-19 05:29N 51°16' E 004°15'0 0.0
2018-Jun-19 04:59N 51°16' E 004°15'0 0.0
2018-Jun-19 04:29N 51°16' E 004°15'0 0.0
2018-Jun-19 03:59N 51°16' E 004°15'0 0.0
2018-Jun-19 03:29N 51°16' E 004°15'0 0.0
2018-Jun-19 02:59N 51°16' E 004°15'0 0.0
2018-Jun-19 02:29N 51°16' E 004°15'0 0.0
2018-Jun-19 01:59N 51°16' E 004°15'0 0.0
2018-Jun-19 01:29N 51°16' E 004°15'0 0.0
2018-Jun-19 00:59N 51°16' E 004°15'0 0.0
2018-Jun-19 00:29N 51°16' E 004°15'0 0.0
2018-Jun-18 23:58N 51°16' E 004°15'0 0.0
2018-Jun-18 23:29N 51°16' E 004°15'0 0.0
2018-Jun-18 22:58N 51°16' E 004°15'0 0.0
2018-Jun-18 22:28N 51°16' E 004°15'0 0.0
2018-Jun-18 21:58N 51°16' E 004°15'0 0.0
2018-Jun-18 21:28N 51°16' E 004°15'0 0.0
2018-Jun-18 20:58N 51°16' E 004°15'0 0.0
2018-Jun-18 20:28N 51°16' E 004°15'0 0.0
2018-Jun-18 19:58N 51°16' E 004°15'0 0.0
2018-Jun-18 19:28N 51°16' E 004°15'0 0.0
2018-Jun-18 18:58N 51°16' E 004°15'0 0.0
2018-Jun-18 18:28N 51°16' E 004°15'0 0.0
2018-Jun-18 17:58N 51°16' E 004°15'0 0.0
2018-Jun-18 17:28N 51°16' E 004°15'0 0.0
2018-Jun-18 16:58N 51°16' E 004°15'0 0.0
2018-Jun-18 16:28N 51°16' E 004°15'0 0.0
2018-Jun-18 15:58N 51°16' E 004°15'0 0.0
2018-Jun-18 15:28N 51°16' E 004°15'0 0.0
2018-Jun-18 14:58N 51°16' E 004°15'0 0.0
2018-Jun-18 14:25N 51°16' E 004°15'0 0.0
2018-Jun-18 13:58N 51°16' E 004°15'0 0.0
2018-Jun-18 13:28N 51°16' E 004°15'0 0.0
2018-Jun-18 12:58N 51°16' E 004°15'0 0.0
2018-Jun-18 12:28N 51°16' E 004°15'0 0.0
2018-Jun-18 11:58N 51°16' E 004°15'0 0.0
2018-Jun-18 11:25N 51°16' E 004°15'0 0.0
2018-Jun-18 10:58N 51°16' E 004°15'0 0.0
2018-Jun-18 10:28N 51°16' E 004°15'0 0.0
2018-Jun-18 09:58N 51°16' E 004°15'0 0.0
2018-Jun-18 09:28N 51°16' E 004°15'0 0.0
2018-Jun-18 08:58N 51°16' E 004°15'0 0.0
2018-Jun-18 08:28N 51°16' E 004°15'0 0.0
2018-Jun-18 07:58N 51°16' E 004°15'0 0.0
2018-Jun-18 07:28N 51°16' E 004°15'0 0.0
2018-Jun-18 06:58N 51°16' E 004°15'0 0.0
2018-Jun-18 06:28N 51°16' E 004°15'1 1.9
2018-Jun-18 06:00N 51°17' E 004°15'0 0.2
2018-Jun-18 05:29N 51°17' E 004°15'0 0.5
2018-Jun-18 05:00N 51°17' E 004°15'3 6.8
2018-Jun-18 04:30N 51°20' E 004°16'5 9.8
2018-Jun-18 04:00N 51°23' E 004°09'611.4
2018-Jun-18 03:30N 51°26' E 004°01'713.3
2018-Jun-18 03:01N 51°21' E 003°53'714.0
2018-Jun-18 02:31N 51°23' E 003°43'510.7
2018-Jun-18 02:01N 51°26' E 003°35'713.0
2018-Jun-18 01:30N 51°25' E 003°25'816.3
2018-Jun-18 01:00N 51°24' E 003°11'714.5
2018-Jun-18 00:30N 51°24' E 002°60'713.9
2018-Jun-18 00:00N 51°22' E 002°49'710.9
2018-Jun-17 23:22N 51°22' E 002°38'512.3
2018-Jun-17 22:59N 51°22' E 002°30'714.9
2018-Jun-17 22:30N 51°19' E 002°20'817.0
2018-Jun-17 22:00N 51°15' E 002°09'917.5
2018-Jun-17 21:30N 51°10' E 001°56'917.0
2018-Jun-17 21:00N 51°06' E 001°45'713.2
2018-Jun-17 20:31N 51°01' E 001°38'611.3
2018-Jun-17 20:01N 50°56' E 001°33'815.0
2018-Jun-17 19:30N 50°50' E 001°27'1817.6
2018-Jun-17 18:30N 50°36' E 001°09'918.1
2018-Jun-17 17:59N 50°31' E 000°57'918.3
2018-Jun-17 17:30N 50°29' E 000°43'1618.1
2018-Jun-17 16:36N 50°24' E 000°19'217.4
2018-Jun-17 16:30N 50°23' E 000°16'918.0
2018-Jun-17 16:00N 50°21' E 000°03'1817.8
2018-Jun-17 15:00N 50°29' W 000°23'918.6
2018-Jun-17 14:30N 50°33' W 000°35'918.1
2018-Jun-17 14:00N 50°38' W 000°48'714.7
2018-Jun-17 13:30N 50°41' W 000°57'611.2
2018-Jun-17 13:00N 50°45' W 001°05'4 8.3
2018-Jun-17 12:30N 50°49' W 001°07'1 1.4
2018-Jun-17 11:59N 50°49' W 001°05'0 0.0
2018-Jun-17 11:29N 50°49' W 001°05'0 0.0
2018-Jun-17 10:59N 50°49' W 001°05'0 0.0
2018-Jun-17 10:29N 50°49' W 001°05'0 0.0
2018-Jun-17 09:59N 50°49' W 001°05'0 0.0
2018-Jun-17 09:29N 50°49' W 001°05'0 0.0
2018-Jun-17 08:59N 50°49' W 001°05'0 0.0
2018-Jun-17 08:29N 50°49' W 001°05'0 0.0
2018-Jun-17 07:59N 50°49' W 001°05'0 0.0
2018-Jun-17 07:29N 50°49' W 001°05'0 0.0
2018-Jun-17 06:59N 50°49' W 001°05'0 0.0
2018-Jun-17 06:29N 50°49' W 001°05'0 0.0
2018-Jun-17 05:59N 50°49' W 001°05'0 0.0
2018-Jun-17 05:29N 50°49' W 001°05'0 0.0
2018-Jun-17 04:59N 50°49' W 001°05'0 0.0
2018-Jun-17 04:29N 50°49' W 001°05'0 0.0
2018-Jun-17 03:59N 50°49' W 001°05'0 0.0
2018-Jun-17 03:29N 50°49' W 001°05'0 0.0
2018-Jun-17 02:59N 50°49' W 001°05'0 0.0
2018-Jun-17 02:29N 50°49' W 001°05'0 0.0
2018-Jun-17 01:59N 50°49' W 001°05'0 0.0
2018-Jun-17 01:29N 50°49' W 001°05'0 0.0
2018-Jun-17 00:59N 50°49' W 001°05'0 0.0
2018-Jun-17 00:29N 50°49' W 001°05'0 0.0
2018-Jun-16 23:56N 50°49' W 001°05'0 0.0
2018-Jun-16 23:29N 50°49' W 001°05'0 0.0
2018-Jun-16 22:59N 50°49' W 001°05'0 0.0
2018-Jun-16 22:29N 50°49' W 001°05'0 0.0
2018-Jun-16 21:59N 50°49' W 001°05'0 0.0
2018-Jun-16 21:29N 50°49' W 001°05'0 0.0
2018-Jun-16 20:59N 50°49' W 001°05'0 0.0
2018-Jun-16 20:29N 50°49' W 001°05'0 0.0
2018-Jun-16 19:59N 50°49' W 001°05'0 0.0
2018-Jun-16 19:29N 50°49' W 001°05'0 0.0
2018-Jun-16 18:59N 50°49' W 001°05'0 0.0
2018-Jun-16 18:29N 50°49' W 001°05'0 0.0
2018-Jun-16 17:59N 50°49' W 001°05'0 0.0
2018-Jun-16 17:29N 50°49' W 001°05'0 0.0
2018-Jun-16 16:59N 50°49' W 001°05'0 0.0
2018-Jun-16 16:29N 50°49' W 001°05'0 0.0
2018-Jun-16 15:59N 50°49' W 001°05'0 0.0
2018-Jun-16 15:29N 50°49' W 001°05'0 0.0
2018-Jun-16 14:59N 50°49' W 001°05'1 2.0
2018-Jun-16 14:30N 50°48' W 001°07'5 9.2
2018-Jun-16 14:01N 50°44' W 001°04'611.7
2018-Jun-16 13:31N 50°39' W 000°59'4 8.9
2018-Jun-16 13:01N 50°35' W 000°58'2 4.5
2018-Jun-16 12:30N 50°33' W 000°58'7019.9
2018-Jun-16 08:59N 49°54' W 002°30'1221.7
2018-Jun-16 08:26N 49°51' W 002°48'1221.1
2018-Jun-16 07:53N 49°46' W 003°04'921.0
2018-Jun-16 07:26N 49°41' W 003°17'5020.8
2018-Jun-16 05:01N 49°16' W 004°23'119.9
2018-Jun-16 04:57N 49°15' W 004°25'2617.8
2018-Jun-16 03:28N 49°02' W 005°00'816.6
2018-Jun-16 03:00N 48°58' W 005°11'60218.0
2018-Jun-14 17:33N 39°50' W 010°59'517.9
2018-Jun-14 17:17N 39°45' W 011°00'817.9
2018-Jun-14 16:51N 39°38' W 011°03'818.0
2018-Jun-14 16:23N 39°30' W 011°06'718.5
2018-Jun-14 15:59N 39°23' W 011°09'918.5
2018-Jun-14 15:30N 39°14' W 011°12'918.3
2018-Jun-14 15:01N 39°05' W 011°14'918.0
2018-Jun-14 14:30N 38°56' W 011°17'1618.0
2018-Jun-14 13:36N 38°41' W 011°23'217.8
2018-Jun-14 13:30N 38°39' W 011°24'918.0
2018-Jun-14 13:01N 38°31' W 011°27'2218.0
2018-Jun-14 11:46N 38°09' W 011°35'617.8
2018-Jun-14 11:27N 38°04' W 011°37'57318.0
2018-Jun-13 03:40N 28°51' W 014°39'318.1
2018-Jun-13 03:28N 28°47' W 014°40'817.9
2018-Jun-13 03:00N 28°39' W 014°43'918.1
2018-Jun-13 02:30N 28°31' W 014°46'918.5
2018-Jun-13 02:00N 28°22' W 014°49'918.2
2018-Jun-13 01:30N 28°13' W 014°52'918.2
2018-Jun-13 01:00N 28°05' W 014°56'918.1
2018-Jun-13 00:30N 27°56' W 014°59'918.2
2018-Jun-13 00:00N 27°48' W 015°03'1018.3
2018-Jun-12 23:29N 27°39' W 015°07'  
Track history (hours):
 
Tides and Currents Weather Stations Pressure Air Temp Water Temp Dewpoint Dewpoint Depression Visibility Wind Speed Wind Dir Waves Ship Positions

Caribbean-star

Last reported at 2018-Jun-22 23:05 UTC. Time now 2018-Jun-23 06:24 UTC.
Position N 48°02' W 006°29'.

Length 185 m; draft 8 m.

Type: Cargo ship. MMSI: 636013068.

Date/timePositionNaut miles runAvg speedWind from/ knotsBaromVisibWave heightAir tempDewpointWater temp
2018-Jun-22 23:05N 48°02' W 006°29'1915.0
2018-Jun-22 21:50N 48°18' W 006°16'515.0
2018-Jun-22 21:30N 48°23' W 006°12'915.3
2018-Jun-22 20:56N 48°30' W 006°06'1615.3
2018-Jun-22 19:51N 48°45' W 005°55'614.8
2018-Jun-22 19:26N 48°51' W 005°50'615.2
2018-Jun-22 19:00N 48°55' W 005°43'816.8
2018-Jun-22 18:31N 48°59' W 005°32'1017.1
2018-Jun-22 17:56N 49°04' W 005°19'6916.2
2018-Jun-22 13:42N 49°39' W 003°48'315.2
2018-Jun-22 13:30N 49°41' W 003°44'815.1
2018-Jun-22 13:00N 49°44' W 003°34'815.1
2018-Jun-22 12:27N 49°49' W 003°23'715.4
2018-Jun-22 12:00N 49°52' W 003°14'815.9
2018-Jun-22 11:30N 49°57' W 003°04'816.1
2018-Jun-22 11:00N 50°00' W 002°53'816.8
2018-Jun-22 10:30N 50°02' W 002°40'1117.5
2018-Jun-22 09:53N 50°05' W 002°23'918.2
2018-Jun-22 09:24N 50°07' W 002°10'4618.1
2018-Jun-22 06:51N 50°20' W 001°01'616.6
2018-Jun-22 06:29N 50°21' W 000°52'815.9
2018-Jun-22 06:00N 50°24' W 000°40'815.4
2018-Jun-22 05:30N 50°26' W 000°29'715.0
2018-Jun-22 05:00N 50°28' W 000°17'814.8
2018-Jun-22 04:27N 50°30' W 000°05'614.6
2018-Jun-22 04:01N 50°32' E 000°05'814.4
2018-Jun-22 03:27N 50°34' E 000°17'714.5
2018-Jun-22 03:01N 50°36' E 000°27'714.9
2018-Jun-22 02:30N 50°39' E 000°37'815.7
2018-Jun-22 02:00N 50°44' E 000°47'816.3
2018-Jun-22 01:30N 50°48' E 000°58'816.8
2018-Jun-22 01:00N 50°53' E 001°09'817.0
2018-Jun-22 00:30N 50°60' E 001°18'815.5
2018-Jun-22 00:00N 51°05' E 001°27'713.8
2018-Jun-21 23:30N 51°09' E 001°36'815.9
2018-Jun-21 23:00N 51°14' E 001°45'815.6
2018-Jun-21 22:30N 51°20' E 001°53'714.0
2018-Jun-21 22:00N 51°24' E 002°02'815.5
2018-Jun-21 21:30N 51°21' E 002°13'714.7
2018-Jun-21 21:00N 51°22' E 002°25'814.7
2018-Jun-21 20:29N 51°23' E 002°37'612.3
2018-Jun-21 20:00N 51°22' E 002°47'612.6
2018-Jun-21 19:30N 51°23' E 002°56'713.0
2018-Jun-21 19:00N 51°24' E 003°07'712.8
2018-Jun-21 18:29N 51°25' E 003°17'612.6
2018-Jun-21 18:00N 51°25' E 003°27'611.4
2018-Jun-21 17:30N 51°26' E 003°36'4 8.2
2018-Jun-21 17:01N 51°25' E 003°42'5 9.9
2018-Jun-21 16:31N 51°21' E 003°48'510.2
2018-Jun-21 16:00N 51°22' E 003°56'5 9.9
2018-Jun-21 15:30N 51°26' E 004°00'510.0
2018-Jun-21 15:00N 51°22' E 004°05'5 9.6
2018-Jun-21 14:31N 51°23' E 004°13'5 9.9
2018-Jun-21 14:01N 51°18' E 004°16'2 3.0
2018-Jun-21 13:24N 51°17' E 004°15'0 0.0
2018-Jun-21 13:00N 51°17' E 004°15'1 1.5
2018-Jun-21 12:30N 51°16' E 004°15'0 0.3
2018-Jun-21 11:57N 51°16' E 004°15'0 0.0
2018-Jun-21 11:30N 51°16' E 004°15'0 0.0
2018-Jun-21 11:00N 51°16' E 004°15'0 0.0
2018-Jun-21 10:30N 51°16' E 004°15'0 0.0
2018-Jun-21 10:00N 51°16' E 004°15'0 0.0
2018-Jun-21 09:30N 51°16' E 004°15'0 0.0
2018-Jun-21 09:00N 51°16' E 004°15'0 0.0
2018-Jun-21 08:30N 51°16' E 004°15'0 0.0
2018-Jun-21 07:59N 51°16' E 004°15'0 0.0
2018-Jun-21 07:29N 51°16' E 004°15'0 0.0
2018-Jun-21 06:59N 51°16' E 004°15'0 0.0
2018-Jun-21 06:29N 51°16' E 004°15'0 0.0
2018-Jun-21 05:59N 51°16' E 004°15'0 0.0
2018-Jun-21 05:29N 51°16' E 004°15'0 0.0
2018-Jun-21 04:59N 51°16' E 004°15'0 0.0
2018-Jun-21 04:29N 51°16' E 004°15'0 0.0
2018-Jun-21 03:59N 51°16' E 004°15'0 0.0
2018-Jun-21 03:29N 51°16' E 004°15'0 0.0
2018-Jun-21 02:59N 51°16' E 004°15'0 0.0
2018-Jun-21 02:29N 51°16' E 004°15'0 0.0
2018-Jun-21 01:59N 51°16' E 004°15'0 0.0
2018-Jun-21 01:29N 51°16' E 004°15'0 0.0
2018-Jun-21 00:59N 51°16' E 004°15'0 0.0
2018-Jun-21 00:29N 51°16' E 004°15'0 0.0
2018-Jun-21 00:00N 51°16' E 004°15'0 0.0
2018-Jun-20 23:30N 51°16' E 004°15'0 0.0
2018-Jun-20 23:00N 51°16' E 004°15'0 0.0
2018-Jun-20 22:30N 51°16' E 004°15'0 0.0
2018-Jun-20 22:00N 51°16' E 004°15'0 0.0
2018-Jun-20 21:30N 51°16' E 004°15'0 0.0
2018-Jun-20 21:00N 51°16' E 004°15'0 0.0
2018-Jun-20 20:30N 51°16' E 004°15'0 0.0
2018-Jun-20 20:00N 51°16' E 004°15'0 0.0
2018-Jun-20 19:30N 51°16' E 004°15'0 0.0
2018-Jun-20 19:00N 51°16' E 004°15'0 0.0
2018-Jun-20 18:24N 51°16' E 004°15'0 0.0
2018-Jun-20 18:00N 51°16' E 004°15'0 0.0
2018-Jun-20 17:30N 51°16' E 004°15'0 0.0
2018-Jun-20 17:00N 51°16' E 004°15'0 0.0
2018-Jun-20 16:30N 51°16' E 004°15'0 0.0
2018-Jun-20 16:00N 51°16' E 004°15'0 0.0
2018-Jun-20 15:30N 51°16' E 004°15'0 0.0
2018-Jun-20 15:00N 51°16' E 004°15'0 0.0
2018-Jun-20 14:30N 51°16' E 004°15'0 0.0
2018-Jun-20 14:00N 51°16' E 004°15'0 0.0
2018-Jun-20 13:24N 51°16' E 004°15'0 0.0
2018-Jun-20 13:00N 51°16' E 004°15'0 0.0
2018-Jun-20 12:30N 51°16' E 004°15'0 0.0
2018-Jun-20 12:00N 51°16' E 004°15'0 0.0
2018-Jun-20 11:30N 51°16' E 004°15'0 0.0
2018-Jun-20 11:00N 51°16' E 004°15'0 0.0
2018-Jun-20 10:26N 51°16' E 004°15'0 0.0
2018-Jun-20 09:59N 51°16' E 004°15'0 0.0
2018-Jun-20 09:29N 51°16' E 004°15'0 0.0
2018-Jun-20 08:56N 51°16' E 004°15'0 0.0
2018-Jun-20 08:29N 51°16' E 004°15'0 0.0
2018-Jun-20 07:59N 51°16' E 004°15'0 0.0
2018-Jun-20 07:29N 51°16' E 004°15'0 0.0
2018-Jun-20 06:59N 51°16' E 004°15'0 0.0
2018-Jun-20 06:29N 51°16' E 004°15'0 0.0
2018-Jun-20 05:59N 51°16' E 004°15'0 0.0
2018-Jun-20 05:29N 51°16' E 004°15'0 0.0
2018-Jun-20 04:59N 51°16' E 004°15'0 0.0
2018-Jun-20 04:29N 51°16' E 004°15'0 0.0
2018-Jun-20 03:59N 51°16' E 004°15'0 0.0
2018-Jun-20 03:29N 51°16' E 004°15'0 0.0
2018-Jun-20 02:59N 51°16' E 004°15'0 0.0
2018-Jun-20 02:29N 51°16' E 004°15'0 0.0
2018-Jun-20 01:59N 51°16' E 004°15'0 0.0
2018-Jun-20 01:29N 51°16' E 004°15'0 0.0
2018-Jun-20 00:59N 51°16' E 004°15'0 0.0
2018-Jun-20 00:29N 51°16' E 004°15'0 0.0
2018-Jun-19 23:59N 51°16' E 004°15'0 0.0
2018-Jun-19 23:29N 51°16' E 004°15'0 0.0
2018-Jun-19 22:59N 51°16' E 004°15'0 0.0
2018-Jun-19 22:29N 51°16' E 004°15'0 0.0
2018-Jun-19 21:59N 51°16' E 004°15'0 0.0
2018-Jun-19 21:29N 51°16' E 004°15'0 0.0
2018-Jun-19 20:56N 51°16' E 004°15'0 0.0
2018-Jun-19 20:29N 51°16' E 004°15'0 0.0
2018-Jun-19 19:59N 51°16' E 004°15'0 0.0
2018-Jun-19 19:26N 51°16' E 004°15'0 0.0
2018-Jun-19 18:59N 51°16' E 004°15'0 0.0
2018-Jun-19 18:29N 51°16' E 004°15'0 0.0
2018-Jun-19 17:59N 51°16' E 004°15'0 0.0
2018-Jun-19 17:29N 51°16' E 004°15'0 0.0
2018-Jun-19 16:59N 51°16' E 004°15'0 0.0
2018-Jun-19 16:29N 51°16' E 004°15'0 0.0
2018-Jun-19 15:59N 51°16' E 004°15'0 0.0
2018-Jun-19 15:29N 51°16' E 004°15'0 0.0
2018-Jun-19 14:59N 51°16' E 004°15'0 0.0
2018-Jun-19 14:29N 51°16' E 004°15'0 0.0
2018-Jun-19 13:59N 51°16' E 004°15'0 0.0
2018-Jun-19 13:29N 51°16' E 004°15'0 0.0
2018-Jun-19 12:59N 51°16' E 004°15'0 0.0
2018-Jun-19 12:29N 51°16' E 004°15'0 0.0
2018-Jun-19 11:59N 51°16' E 004°15'0 0.0
2018-Jun-19 11:29N 51°16' E 004°15'0 0.0
2018-Jun-19 10:59N 51°16' E 004°15'0 0.0
2018-Jun-19 10:29N 51°16' E 004°15'0 0.0
2018-Jun-19 09:59N 51°16' E 004°15'0 0.0
2018-Jun-19 09:29N 51°16' E 004°15'0 0.0
2018-Jun-19 08:59N 51°16' E 004°15'0 0.0
2018-Jun-19 08:29N 51°16' E 004°15'0 0.0
2018-Jun-19 07:59N 51°16' E 004°15'0 0.0
2018-Jun-19 07:29N 51°16' E 004°15'0 0.0
2018-Jun-19 06:59N 51°16' E 004°15'0 0.0
2018-Jun-19 06:29N 51°16' E 004°15'0 0.0
2018-Jun-19 05:59N 51°16' E 004°15'0 0.0
2018-Jun-19 05:29N 51°16' E 004°15'0 0.0
2018-Jun-19 04:59N 51°16' E 004°15'0 0.0
2018-Jun-19 04:29N 51°16' E 004°15'0 0.0
2018-Jun-19 03:59N 51°16' E 004°15'0 0.0
2018-Jun-19 03:29N 51°16' E 004°15'0 0.0
2018-Jun-19 02:59N 51°16' E 004°15'0 0.0
2018-Jun-19 02:29N 51°16' E 004°15'0 0.0
2018-Jun-19 01:59N 51°16' E 004°15'0 0.0
2018-Jun-19 01:29N 51°16' E 004°15'0 0.0
2018-Jun-19 00:59N 51°16' E 004°15'0 0.0
2018-Jun-19 00:29N 51°16' E 004°15'0 0.0
2018-Jun-18 23:58N 51°16' E 004°15'0 0.0
2018-Jun-18 23:29N 51°16' E 004°15'0 0.0
2018-Jun-18 22:58N 51°16' E 004°15'0 0.0
2018-Jun-18 22:28N 51°16' E 004°15'0 0.0
2018-Jun-18 21:58N 51°16' E 004°15'0 0.0
2018-Jun-18 21:28N 51°16' E 004°15'0 0.0
2018-Jun-18 20:58N 51°16' E 004°15'0 0.0
2018-Jun-18 20:28N 51°16' E 004°15'0 0.0
2018-Jun-18 19:58N 51°16' E 004°15'0 0.0
2018-Jun-18 19:28N 51°16' E 004°15'0 0.0
2018-Jun-18 18:58N 51°16' E 004°15'0 0.0
2018-Jun-18 18:28N 51°16' E 004°15'0 0.0
2018-Jun-18 17:58N 51°16' E 004°15'0 0.0
2018-Jun-18 17:28N 51°16' E 004°15'0 0.0
2018-Jun-18 16:58N 51°16' E 004°15'0 0.0
2018-Jun-18 16:28N 51°16' E 004°15'0 0.0
2018-Jun-18 15:58N 51°16' E 004°15'0 0.0
2018-Jun-18 15:28N 51°16' E 004°15'0 0.0
2018-Jun-18 14:58N 51°16' E 004°15'0 0.0
2018-Jun-18 14:25N 51°16' E 004°15'0 0.0
2018-Jun-18 13:58N 51°16' E 004°15'0 0.0
2018-Jun-18 13:28N 51°16' E 004°15'0 0.0
2018-Jun-18 12:58N 51°16' E 004°15'0 0.0
2018-Jun-18 12:28N 51°16' E 004°15'0 0.0
2018-Jun-18 11:58N 51°16' E 004°15'0 0.0
2018-Jun-18 11:25N 51°16' E 004°15'0 0.0
2018-Jun-18 10:58N 51°16' E 004°15'0 0.0
2018-Jun-18 10:28N 51°16' E 004°15'0 0.0
2018-Jun-18 09:58N 51°16' E 004°15'0 0.0
2018-Jun-18 09:28N 51°16' E 004°15'0 0.0
2018-Jun-18 08:58N 51°16' E 004°15'0 0.0
2018-Jun-18 08:28N 51°16' E 004°15'0 0.0
2018-Jun-18 07:58N 51°16' E 004°15'0 0.0
2018-Jun-18 07:28N 51°16' E 004°15'0 0.0
2018-Jun-18 06:58N 51°16' E 004°15'0 0.0
2018-Jun-18 06:28N 51°16' E 004°15'1 1.9
2018-Jun-18 06:00N 51°17' E 004°15'0 0.2
2018-Jun-18 05:29N 51°17' E 004°15'0 0.5
2018-Jun-18 05:00N 51°17' E 004°15'3 6.8
2018-Jun-18 04:30N 51°20' E 004°16'5 9.8
2018-Jun-18 04:00N 51°23' E 004°09'611.4
2018-Jun-18 03:30N 51°26' E 004°01'713.3
2018-Jun-18 03:01N 51°21' E 003°53'714.0
2018-Jun-18 02:31N 51°23' E 003°43'510.7
2018-Jun-18 02:01N 51°26' E 003°35'713.0
2018-Jun-18 01:30N 51°25' E 003°25'816.3
2018-Jun-18 01:00N 51°24' E 003°11'714.5
2018-Jun-18 00:30N 51°24' E 002°60'713.9
2018-Jun-18 00:00N 51°22' E 002°49'710.9
2018-Jun-17 23:22N 51°22' E 002°38'512.3
2018-Jun-17 22:59N 51°22' E 002°30'714.9
2018-Jun-17 22:30N 51°19' E 002°20'817.0
2018-Jun-17 22:00N 51°15' E 002°09'917.5
2018-Jun-17 21:30N 51°10' E 001°56'917.0
2018-Jun-17 21:00N 51°06' E 001°45'713.2
2018-Jun-17 20:31N 51°01' E 001°38'611.3
2018-Jun-17 20:01N 50°56' E 001°33'815.0
2018-Jun-17 19:30N 50°50' E 001°27'1817.6
2018-Jun-17 18:30N 50°36' E 001°09'918.1
2018-Jun-17 17:59N 50°31' E 000°57'918.3
2018-Jun-17 17:30N 50°29' E 000°43'1618.1
2018-Jun-17 16:36N 50°24' E 000°19'217.4
2018-Jun-17 16:30N 50°23' E 000°16'918.0
2018-Jun-17 16:00N 50°21' E 000°03'1817.8
2018-Jun-17 15:00N 50°29' W 000°23'918.6
2018-Jun-17 14:30N 50°33' W 000°35'918.1
2018-Jun-17 14:00N 50°38' W 000°48'714.7
2018-Jun-17 13:30N 50°41' W 000°57'611.2
2018-Jun-17 13:00N 50°45' W 001°05'4 8.3
2018-Jun-17 12:30N 50°49' W 001°07'1 1.4
2018-Jun-17 11:59N 50°49' W 001°05'0 0.0
2018-Jun-17 11:29N 50°49' W 001°05'0 0.0
2018-Jun-17 10:59N 50°49' W 001°05'0 0.0
2018-Jun-17 10:29N 50°49' W 001°05'0 0.0
2018-Jun-17 09:59N 50°49' W 001°05'0 0.0
2018-Jun-17 09:29N 50°49' W 001°05'0 0.0
2018-Jun-17 08:59N 50°49' W 001°05'0 0.0
2018-Jun-17 08:29N 50°49' W 001°05'0 0.0
2018-Jun-17 07:59N 50°49' W 001°05'0 0.0
2018-Jun-17 07:29N 50°49' W 001°05'0 0.0
2018-Jun-17 06:59N 50°49' W 001°05'0 0.0
2018-Jun-17 06:29N 50°49' W 001°05'0 0.0
2018-Jun-17 05:59N 50°49' W 001°05'0 0.0
2018-Jun-17 05:29N 50°49' W 001°05'0 0.0
2018-Jun-17 04:59N 50°49' W 001°05'0 0.0
2018-Jun-17 04:29N 50°49' W 001°05'0 0.0
2018-Jun-17 03:59N 50°49' W 001°05'0 0.0
2018-Jun-17 03:29N 50°49' W 001°05'0 0.0
2018-Jun-17 02:59N 50°49' W 001°05'0 0.0
2018-Jun-17 02:29N 50°49' W 001°05'0 0.0
2018-Jun-17 01:59N 50°49' W 001°05'0 0.0
2018-Jun-17 01:29N 50°49' W 001°05'0 0.0
2018-Jun-17 00:59N 50°49' W 001°05'0 0.0
2018-Jun-17 00:29N 50°49' W 001°05'0 0.0
2018-Jun-16 23:56N 50°49' W 001°05'0 0.0
2018-Jun-16 23:29N 50°49' W 001°05'0 0.0
2018-Jun-16 22:59N 50°49' W 001°05'0 0.0
2018-Jun-16 22:29N 50°49' W 001°05'0 0.0
2018-Jun-16 21:59N 50°49' W 001°05'0 0.0
2018-Jun-16 21:29N 50°49' W 001°05'0 0.0
2018-Jun-16 20:59N 50°49' W 001°05'0 0.0
2018-Jun-16 20:29N 50°49' W 001°05'0 0.0
2018-Jun-16 19:59N 50°49' W 001°05'0 0.0
2018-Jun-16 19:29N 50°49' W 001°05'0 0.0
2018-Jun-16 18:59N 50°49' W 001°05'0 0.0
2018-Jun-16 18:29N 50°49' W 001°05'0 0.0
2018-Jun-16 17:59N 50°49' W 001°05'0 0.0
2018-Jun-16 17:29N 50°49' W 001°05'0 0.0
2018-Jun-16 16:59N 50°49' W 001°05'0 0.0
2018-Jun-16 16:29N 50°49' W 001°05'0 0.0
2018-Jun-16 15:59N 50°49' W 001°05'0 0.0
2018-Jun-16 15:29N 50°49' W 001°05'0 0.0
2018-Jun-16 14:59N 50°49' W 001°05'1 2.0
2018-Jun-16 14:30N 50°48' W 001°07'5 9.2
2018-Jun-16 14:01N 50°44' W 001°04'611.7
2018-Jun-16 13:31N 50°39' W 000°59'4 8.9
2018-Jun-16 13:01N 50°35' W 000°58'2 4.5
2018-Jun-16 12:30N 50°33' W 000°58'7019.9
2018-Jun-16 08:59N 49°54' W 002°30'1221.7
2018-Jun-16 08:26N 49°51' W 002°48'1221.1
2018-Jun-16 07:53N 49°46' W 003°04'921.0
2018-Jun-16 07:26N 49°41' W 003°17'5020.8
2018-Jun-16 05:01N 49°16' W 004°23'119.9
2018-Jun-16 04:57N 49°15' W 004°25'2617.8
2018-Jun-16 03:28N 49°02' W 005°00'816.6
2018-Jun-16 03:00N 48°58' W 005°11'60218.0
2018-Jun-14 17:33N 39°50' W 010°59'517.9
2018-Jun-14 17:17N 39°45' W 011°00'817.9
2018-Jun-14 16:51N 39°38' W 011°03'818.0
2018-Jun-14 16:23N 39°30' W 011°06'718.5
2018-Jun-14 15:59N 39°23' W 011°09'918.5
2018-Jun-14 15:30N 39°14' W 011°12'918.3
2018-Jun-14 15:01N 39°05' W 011°14'918.0
2018-Jun-14 14:30N 38°56' W 011°17'1618.0
2018-Jun-14 13:36N 38°41' W 011°23'217.8
2018-Jun-14 13:30N 38°39' W 011°24'918.0
2018-Jun-14 13:01N 38°31' W 011°27'2218.0
2018-Jun-14 11:46N 38°09' W 011°35'617.8
2018-Jun-14 11:27N 38°04' W 011°37'57318.0
2018-Jun-13 03:40N 28°51' W 014°39'318.1
2018-Jun-13 03:28N 28°47' W 014°40'817.9
2018-Jun-13 03:00N 28°39' W 014°43'918.1
2018-Jun-13 02:30N 28°31' W 014°46'918.5
2018-Jun-13 02:00N 28°22' W 014°49'918.2
2018-Jun-13 01:30N 28°13' W 014°52'918.2
2018-Jun-13 01:00N 28°05' W 014°56'918.1
2018-Jun-13 00:30N 27°56' W 014°59'918.2
2018-Jun-13 00:00N 27°48' W 015°03'1018.3
2018-Jun-12 23:29N 27°39' W 015°07'  

Dump ship's entire track history